sensor_id;sensor_type;location;lat;lon;timestamp;P1;durP1;ratioP1;P2;durP2;ratioP2
52686;SDS011;38584;49.426;8.396;2022-07-11T00:00:54;7.30;;;2.83;;
52686;SDS011;38584;49.426;8.396;2022-07-11T00:03:20;12.45;;;3.33;;
52686;SDS011;38584;49.426;8.396;2022-07-11T00:05:45;7.95;;;2.78;;
52686;SDS011;38584;49.426;8.396;2022-07-11T00:08:11;6.82;;;2.70;;
52686;SDS011;38584;49.426;8.396;2022-07-11T00:10:36;9.88;;;2.67;;
52686;SDS011;38584;49.426;8.396;2022-07-11T00:13:02;8.40;;;2.60;;
52686;SDS011;38584;49.426;8.396;2022-07-11T00:15:27;6.47;;;2.42;;
52686;SDS011;38584;49.426;8.396;2022-07-11T00:17:53;8.40;;;2.90;;
52686;SDS011;38584;49.426;8.396;2022-07-11T00:20:18;6.50;;;2.40;;
52686;SDS011;38584;49.426;8.396;2022-07-11T00:22:43;8.25;;;2.38;;
52686;SDS011;38584;49.426;8.396;2022-07-11T00:25:09;8.88;;;2.83;;
52686;SDS011;38584;49.426;8.396;2022-07-11T00:27:34;8.70;;;2.80;;
52686;SDS011;38584;49.426;8.396;2022-07-11T00:29:59;9.13;;;2.75;;
52686;SDS011;38584;49.426;8.396;2022-07-11T00:32:25;11.77;;;2.75;;
52686;SDS011;38584;49.426;8.396;2022-07-11T00:34:50;10.02;;;2.65;;
52686;SDS011;38584;49.426;8.396;2022-07-11T00:37:16;8.40;;;2.60;;
52686;SDS011;38584;49.426;8.396;2022-07-11T00:39:42;9.88;;;2.70;;
52686;SDS011;38584;49.426;8.396;2022-07-11T00:42:07;8.13;;;2.70;;
52686;SDS011;38584;49.426;8.396;2022-07-11T00:44:32;6.35;;;2.47;;
52686;SDS011;38584;49.426;8.396;2022-07-11T00:46:57;9.18;;;2.80;;
52686;SDS011;38584;49.426;8.396;2022-07-11T00:49:23;10.65;;;2.85;;
52686;SDS011;38584;49.426;8.396;2022-07-11T00:51:48;12.70;;;3.17;;
52686;SDS011;38584;49.426;8.396;2022-07-11T00:54:14;12.30;;;3.15;;
52686;SDS011;38584;49.426;8.396;2022-07-11T00:56:41;11.63;;;2.78;;
52686;SDS011;38584;49.426;8.396;2022-07-11T00:59:06;9.55;;;2.95;;
52686;SDS011;38584;49.426;8.396;2022-07-11T01:01:33;6.68;;;2.90;;
52686;SDS011;38584;49.426;8.396;2022-07-11T01:04:01;8.45;;;3.00;;
52686;SDS011;38584;49.426;8.396;2022-07-11T01:06:27;7.40;;;2.63;;
52686;SDS011;38584;49.426;8.396;2022-07-11T01:08:52;10.93;;;3.25;;
52686;SDS011;38584;49.426;8.396;2022-07-11T01:11:18;9.65;;;3.00;;
52686;SDS011;38584;49.426;8.396;2022-07-11T01:13:44;6.85;;;2.60;;
52686;SDS011;38584;49.426;8.396;2022-07-11T01:16:11;7.32;;;2.85;;
52686;SDS011;38584;49.426;8.396;2022-07-11T01:18:38;7.75;;;2.83;;
52686;SDS011;38584;49.426;8.396;2022-07-11T01:21:06;10.70;;;2.78;;
52686;SDS011;38584;49.426;8.396;2022-07-11T01:23:35;9.77;;;3.00;;
52686;SDS011;38584;49.426;8.396;2022-07-11T01:26:01;10.77;;;3.10;;
52686;SDS011;38584;49.426;8.396;2022-07-11T01:28:26;12.27;;;3.60;;
52686;SDS011;38584;49.426;8.396;2022-07-11T01:30:52;9.30;;;3.10;;
52686;SDS011;38584;49.426;8.396;2022-07-11T01:33:18;9.65;;;3.30;;
52686;SDS011;38584;49.426;8.396;2022-07-11T01:35:43;11.05;;;3.40;;
52686;SDS011;38584;49.426;8.396;2022-07-11T01:38:08;12.43;;;3.40;;
52686;SDS011;38584;49.426;8.396;2022-07-11T01:40:34;14.52;;;3.97;;
52686;SDS011;38584;49.426;8.396;2022-07-11T01:42:59;13.90;;;4.05;;
52686;SDS011;38584;49.426;8.396;2022-07-11T01:45:25;14.05;;;3.58;;
52686;SDS011;38584;49.426;8.396;2022-07-11T01:47:50;14.00;;;4.00;;
52686;SDS011;38584;49.426;8.396;2022-07-11T01:50:16;14.75;;;3.42;;
52686;SDS011;38584;49.426;8.396;2022-07-11T01:52:41;11.07;;;3.60;;
52686;SDS011;38584;49.426;8.396;2022-07-11T01:55:06;8.48;;;3.50;;
52686;SDS011;38584;49.426;8.396;2022-07-11T01:57:32;9.18;;;3.40;;
52686;SDS011;38584;49.426;8.396;2022-07-11T01:59:57;8.98;;;3.40;;
52686;SDS011;38584;49.426;8.396;2022-07-11T02:02:23;9.85;;;3.63;;
52686;SDS011;38584;49.426;8.396;2022-07-11T02:04:48;9.02;;;3.50;;
52686;SDS011;38584;49.426;8.396;2022-07-11T02:07:13;9.80;;;3.58;;
52686;SDS011;38584;49.426;8.396;2022-07-11T02:09:40;13.75;;;3.80;;
52686;SDS011;38584;49.426;8.396;2022-07-11T02:12:06;13.32;;;3.50;;
52686;SDS011;38584;49.426;8.396;2022-07-11T02:14:31;8.70;;;3.30;;
52686;SDS011;38584;49.426;8.396;2022-07-11T02:16:57;10.73;;;3.63;;
52686;SDS011;38584;49.426;8.396;2022-07-11T02:19:23;9.10;;;3.20;;
52686;SDS011;38584;49.426;8.396;2022-07-11T02:21:48;10.27;;;3.55;;
52686;SDS011;38584;49.426;8.396;2022-07-11T02:24:14;10.73;;;3.47;;
52686;SDS011;38584;49.426;8.396;2022-07-11T02:26:39;9.38;;;3.25;;
52686;SDS011;38584;49.426;8.396;2022-07-11T02:29:04;9.38;;;3.65;;
52686;SDS011;38584;49.426;8.396;2022-07-11T02:31:29;8.85;;;3.22;;
52686;SDS011;38584;49.426;8.396;2022-07-11T02:33:55;9.45;;;3.08;;
52686;SDS011;38584;49.426;8.396;2022-07-11T02:36:20;6.78;;;2.95;;
52686;SDS011;38584;49.426;8.396;2022-07-11T02:38:45;10.05;;;3.10;;
52686;SDS011;38584;49.426;8.396;2022-07-11T02:41:11;8.98;;;2.92;;
52686;SDS011;38584;49.426;8.396;2022-07-11T02:43:37;10.65;;;3.28;;
52686;SDS011;38584;49.426;8.396;2022-07-11T02:46:02;10.52;;;3.20;;
52686;SDS011;38584;49.426;8.396;2022-07-11T02:48:28;7.65;;;3.20;;
52686;SDS011;38584;49.426;8.396;2022-07-11T02:50:53;11.38;;;3.17;;
52686;SDS011;38584;49.426;8.396;2022-07-11T02:53:18;13.57;;;3.30;;
52686;SDS011;38584;49.426;8.396;2022-07-11T02:55:44;10.55;;;3.30;;
52686;SDS011;38584;49.426;8.396;2022-07-11T02:58:09;10.23;;;3.17;;
52686;SDS011;38584;49.426;8.396;2022-07-11T03:00:34;10.65;;;3.08;;
52686;SDS011;38584;49.426;8.396;2022-07-11T03:03:00;12.30;;;3.20;;
52686;SDS011;38584;49.426;8.396;2022-07-11T03:05:26;8.27;;;3.08;;
52686;SDS011;38584;49.426;8.396;2022-07-11T03:07:52;8.10;;;3.20;;
52686;SDS011;38584;49.426;8.396;2022-07-11T03:10:17;9.68;;;3.13;;
52686;SDS011;38584;49.426;8.396;2022-07-11T03:12:42;8.90;;;3.33;;
52686;SDS011;38584;49.426;8.396;2022-07-11T03:15:08;11.50;;;3.47;;
52686;SDS011;38584;49.426;8.396;2022-07-11T03:17:34;8.90;;;3.10;;
52686;SDS011;38584;49.426;8.396;2022-07-11T03:20:01;9.40;;;3.33;;
52686;SDS011;38584;49.426;8.396;2022-07-11T03:22:26;16.90;;;4.22;;
52686;SDS011;38584;49.426;8.396;2022-07-11T03:24:52;11.70;;;3.25;;
52686;SDS011;38584;49.426;8.396;2022-07-11T03:27:17;8.85;;;3.50;;
52686;SDS011;38584;49.426;8.396;2022-07-11T03:29:43;10.18;;;3.05;;
52686;SDS011;38584;49.426;8.396;2022-07-11T03:32:08;7.97;;;2.92;;
52686;SDS011;38584;49.426;8.396;2022-07-11T03:34:34;6.20;;;2.75;;
52686;SDS011;38584;49.426;8.396;2022-07-11T03:37:00;12.95;;;3.55;;
52686;SDS011;38584;49.426;8.396;2022-07-11T03:39:25;9.60;;;3.17;;
52686;SDS011;38584;49.426;8.396;2022-07-11T03:41:50;9.25;;;2.90;;
52686;SDS011;38584;49.426;8.396;2022-07-11T03:44:16;19.63;;;3.70;;
52686;SDS011;38584;49.426;8.396;2022-07-11T03:46:41;8.18;;;2.85;;
52686;SDS011;38584;49.426;8.396;2022-07-11T03:49:07;8.25;;;3.20;;
52686;SDS011;38584;49.426;8.396;2022-07-11T03:51:33;7.40;;;2.85;;
52686;SDS011;38584;49.426;8.396;2022-07-11T03:53:58;10.15;;;4.05;;
52686;SDS011;38584;49.426;8.396;2022-07-11T03:56:25;10.55;;;3.70;;
52686;SDS011;38584;49.426;8.396;2022-07-11T03:58:50;9.85;;;3.83;;
52686;SDS011;38584;49.426;8.396;2022-07-11T04:01:16;10.20;;;3.40;;
52686;SDS011;38584;49.426;8.396;2022-07-11T04:03:41;13.20;;;3.45;;
52686;SDS011;38584;49.426;8.396;2022-07-11T04:06:07;10.55;;;3.30;;
52686;SDS011;38584;49.426;8.396;2022-07-11T04:08:32;11.98;;;3.35;;
52686;SDS011;38584;49.426;8.396;2022-07-11T04:10:58;10.68;;;3.20;;
52686;SDS011;38584;49.426;8.396;2022-07-11T04:13:23;7.68;;;3.08;;
52686;SDS011;38584;49.426;8.396;2022-07-11T04:15:49;9.13;;;3.10;;
52686;SDS011;38584;49.426;8.396;2022-07-11T04:18:14;11.50;;;3.20;;
52686;SDS011;38584;49.426;8.396;2022-07-11T04:20:39;7.50;;;2.92;;
52686;SDS011;38584;49.426;8.396;2022-07-11T04:23:05;7.78;;;3.20;;
52686;SDS011;38584;49.426;8.396;2022-07-11T04:25:30;9.05;;;3.17;;
52686;SDS011;38584;49.426;8.396;2022-07-11T04:27:56;10.00;;;2.67;;
52686;SDS011;38584;49.426;8.396;2022-07-11T04:30:21;9.05;;;2.97;;
52686;SDS011;38584;49.426;8.396;2022-07-11T04:32:46;7.82;;;3.00;;
52686;SDS011;38584;49.426;8.396;2022-07-11T04:35:12;7.88;;;2.85;;
52686;SDS011;38584;49.426;8.396;2022-07-11T04:37:37;7.10;;;2.67;;
52686;SDS011;38584;49.426;8.396;2022-07-11T04:40:04;12.90;;;3.50;;
52686;SDS011;38584;49.426;8.396;2022-07-11T04:42:30;8.20;;;3.03;;
52686;SDS011;38584;49.426;8.396;2022-07-11T04:44:55;8.77;;;3.17;;
52686;SDS011;38584;49.426;8.396;2022-07-11T04:47:21;12.60;;;2.80;;
52686;SDS011;38584;49.426;8.396;2022-07-11T04:49:46;10.63;;;3.03;;
52686;SDS011;38584;49.426;8.396;2022-07-11T04:52:12;8.15;;;3.33;;
52686;SDS011;38584;49.426;8.396;2022-07-11T04:54:38;10.05;;;3.05;;
52686;SDS011;38584;49.426;8.396;2022-07-11T04:57:04;9.73;;;3.13;;
52686;SDS011;38584;49.426;8.396;2022-07-11T04:59:29;7.72;;;3.17;;
52686;SDS011;38584;49.426;8.396;2022-07-11T05:01:55;8.10;;;3.00;;
52686;SDS011;38584;49.426;8.396;2022-07-11T05:04:20;6.40;;;2.67;;
52686;SDS011;38584;49.426;8.396;2022-07-11T05:06:45;10.73;;;2.80;;
52686;SDS011;38584;49.426;8.396;2022-07-11T05:09:11;6.28;;;2.90;;
52686;SDS011;38584;49.426;8.396;2022-07-11T05:11:36;9.13;;;3.00;;
52686;SDS011;38584;49.426;8.396;2022-07-11T05:14:01;10.43;;;3.00;;
52686;SDS011;38584;49.426;8.396;2022-07-11T05:16:27;6.30;;;2.92;;
52686;SDS011;38584;49.426;8.396;2022-07-11T05:18:52;14.07;;;2.72;;
52686;SDS011;38584;49.426;8.396;2022-07-11T05:21:17;9.88;;;3.28;;
52686;SDS011;38584;49.426;8.396;2022-07-11T05:23:47;9.25;;;3.10;;
52686;SDS011;38584;49.426;8.396;2022-07-11T05:26:13;7.63;;;3.03;;
52686;SDS011;38584;49.426;8.396;2022-07-11T05:28:39;8.35;;;2.75;;
52686;SDS011;38584;49.426;8.396;2022-07-11T05:31:05;9.45;;;3.30;;
52686;SDS011;38584;49.426;8.396;2022-07-11T05:33:30;8.13;;;3.17;;
52686;SDS011;38584;49.426;8.396;2022-07-11T05:35:56;10.32;;;3.20;;
52686;SDS011;38584;49.426;8.396;2022-07-11T05:38:21;8.30;;;3.03;;
52686;SDS011;38584;49.426;8.396;2022-07-11T05:40:47;8.65;;;2.80;;
52686;SDS011;38584;49.426;8.396;2022-07-11T05:43:12;8.65;;;3.10;;
52686;SDS011;38584;49.426;8.396;2022-07-11T05:45:38;7.80;;;3.13;;
52686;SDS011;38584;49.426;8.396;2022-07-11T05:48:03;11.10;;;3.33;;
52686;SDS011;38584;49.426;8.396;2022-07-11T05:50:28;9.68;;;2.80;;
52686;SDS011;38584;49.426;8.396;2022-07-11T05:52:54;6.40;;;2.47;;
52686;SDS011;38584;49.426;8.396;2022-07-11T05:55:22;10.10;;;3.30;;
52686;SDS011;38584;49.426;8.396;2022-07-11T05:57:47;7.85;;;3.08;;
52686;SDS011;38584;49.426;8.396;2022-07-11T06:00:13;9.13;;;2.58;;
52686;SDS011;38584;49.426;8.396;2022-07-11T06:02:38;6.85;;;2.40;;
52686;SDS011;38584;49.426;8.396;2022-07-11T06:05:03;7.95;;;2.58;;
52686;SDS011;38584;49.426;8.396;2022-07-11T06:07:29;11.13;;;2.90;;
52686;SDS011;38584;49.426;8.396;2022-07-11T06:10:13;4.47;;;2.30;;
52686;SDS011;38584;49.426;8.396;2022-07-11T06:12:39;6.40;;;2.20;;
52686;SDS011;38584;49.426;8.396;2022-07-11T06:15:06;8.38;;;2.75;;
52686;SDS011;38584;49.426;8.396;2022-07-11T06:17:31;5.07;;;2.42;;
52686;SDS011;38584;49.426;8.396;2022-07-11T06:19:57;10.88;;;2.60;;
52686;SDS011;38584;49.426;8.396;2022-07-11T06:22:22;9.20;;;2.50;;
52686;SDS011;38584;49.426;8.396;2022-07-11T06:24:48;7.70;;;2.88;;
52686;SDS011;38584;49.426;8.396;2022-07-11T06:27:13;8.60;;;2.85;;
52686;SDS011;38584;49.426;8.396;2022-07-11T06:29:38;8.23;;;2.42;;
52686;SDS011;38584;49.426;8.396;2022-07-11T06:32:05;7.65;;;2.35;;
52686;SDS011;38584;49.426;8.396;2022-07-11T06:34:31;9.15;;;2.40;;
52686;SDS011;38584;49.426;8.396;2022-07-11T06:36:56;8.70;;;2.50;;
52686;SDS011;38584;49.426;8.396;2022-07-11T06:39:22;8.30;;;2.38;;
52686;SDS011;38584;49.426;8.396;2022-07-11T06:41:47;7.68;;;2.50;;
52686;SDS011;38584;49.426;8.396;2022-07-11T06:44:13;8.65;;;2.47;;
52686;SDS011;38584;49.426;8.396;2022-07-11T06:46:38;5.15;;;2.30;;
52686;SDS011;38584;49.426;8.396;2022-07-11T06:49:03;4.95;;;2.50;;
52686;SDS011;38584;49.426;8.396;2022-07-11T06:51:29;8.07;;;2.75;;
52686;SDS011;38584;49.426;8.396;2022-07-11T06:53:54;10.73;;;2.97;;
52686;SDS011;38584;49.426;8.396;2022-07-11T06:56:19;9.60;;;2.80;;
52686;SDS011;38584;49.426;8.396;2022-07-11T06:58:44;7.55;;;2.78;;
52686;SDS011;38584;49.426;8.396;2022-07-11T07:01:10;6.93;;;2.55;;
52686;SDS011;38584;49.426;8.396;2022-07-11T07:03:35;8.75;;;2.90;;
52686;SDS011;38584;49.426;8.396;2022-07-11T07:06:00;13.60;;;4.45;;
52686;SDS011;38584;49.426;8.396;2022-07-11T07:08:27;13.13;;;3.20;;
52686;SDS011;38584;49.426;8.396;2022-07-11T07:10:54;9.93;;;3.65;;
52686;SDS011;38584;49.426;8.396;2022-07-11T07:13:19;10.02;;;3.00;;
52686;SDS011;38584;49.426;8.396;2022-07-11T07:15:46;8.88;;;3.05;;
52686;SDS011;38584;49.426;8.396;2022-07-11T07:18:11;7.35;;;2.55;;
52686;SDS011;38584;49.426;8.396;2022-07-11T07:20:37;7.95;;;2.55;;
52686;SDS011;38584;49.426;8.396;2022-07-11T07:23:02;8.52;;;2.92;;
52686;SDS011;38584;49.426;8.396;2022-07-11T07:25:28;12.05;;;2.50;;
52686;SDS011;38584;49.426;8.396;2022-07-11T07:27:53;14.18;;;2.67;;
52686;SDS011;38584;49.426;8.396;2022-07-11T07:30:18;8.85;;;3.03;;
52686;SDS011;38584;49.426;8.396;2022-07-11T07:32:44;11.00;;;2.92;;
52686;SDS011;38584;49.426;8.396;2022-07-11T07:35:09;9.30;;;2.38;;
52686;SDS011;38584;49.426;8.396;2022-07-11T07:37:34;7.85;;;2.53;;
52686;SDS011;38584;49.426;8.396;2022-07-11T07:40:00;12.30;;;2.70;;
52686;SDS011;38584;49.426;8.396;2022-07-11T07:42:25;12.40;;;3.28;;
52686;SDS011;38584;49.426;8.396;2022-07-11T07:44:50;9.57;;;2.63;;
52686;SDS011;38584;49.426;8.396;2022-07-11T07:47:16;9.93;;;2.90;;
52686;SDS011;38584;49.426;8.396;2022-07-11T07:49:41;11.13;;;2.92;;
52686;SDS011;38584;49.426;8.396;2022-07-11T07:52:06;10.65;;;3.40;;
52686;SDS011;38584;49.426;8.396;2022-07-11T07:54:32;13.63;;;3.20;;
52686;SDS011;38584;49.426;8.396;2022-07-11T07:56:57;10.02;;;2.92;;
52686;SDS011;38584;49.426;8.396;2022-07-11T07:59:22;9.80;;;2.80;;
52686;SDS011;38584;49.426;8.396;2022-07-11T08:01:50;9.15;;;2.90;;
52686;SDS011;38584;49.426;8.396;2022-07-11T08:04:16;14.27;;;2.85;;
52686;SDS011;38584;49.426;8.396;2022-07-11T08:06:42;9.25;;;2.75;;
52686;SDS011;38584;49.426;8.396;2022-07-11T08:09:07;8.63;;;2.40;;
52686;SDS011;38584;49.426;8.396;2022-07-11T08:11:32;8.32;;;2.85;;
52686;SDS011;38584;49.426;8.396;2022-07-11T08:13:59;8.00;;;2.50;;
52686;SDS011;38584;49.426;8.396;2022-07-11T08:16:25;6.85;;;2.30;;
52686;SDS011;38584;49.426;8.396;2022-07-11T08:18:50;9.00;;;2.53;;
52686;SDS011;38584;49.426;8.396;2022-07-11T08:21:18;5.85;;;1.95;;
52686;SDS011;38584;49.426;8.396;2022-07-11T08:23:43;5.45;;;2.08;;
52686;SDS011;38584;49.426;8.396;2022-07-11T08:26:09;7.40;;;2.15;;
52686;SDS011;38584;49.426;8.396;2022-07-11T08:28:34;8.50;;;2.20;;
52686;SDS011;38584;49.426;8.396;2022-07-11T08:30:59;8.75;;;2.03;;
52686;SDS011;38584;49.426;8.396;2022-07-11T08:33:25;7.53;;;2.13;;
52686;SDS011;38584;49.426;8.396;2022-07-11T08:35:50;10.90;;;2.38;;
52686;SDS011;38584;49.426;8.396;2022-07-11T08:38:15;6.63;;;2.20;;
52686;SDS011;38584;49.426;8.396;2022-07-11T08:40:41;7.28;;;1.67;;
52686;SDS011;38584;49.426;8.396;2022-07-11T08:43:13;11.75;;;2.25;;
52686;SDS011;38584;49.426;8.396;2022-07-11T08:45:40;7.43;;;2.13;;
52686;SDS011;38584;49.426;8.396;2022-07-11T08:48:07;7.75;;;2.10;;
52686;SDS011;38584;49.426;8.396;2022-07-11T08:50:34;8.25;;;2.20;;
52686;SDS011;38584;49.426;8.396;2022-07-11T08:53:00;9.55;;;1.85;;
52686;SDS011;38584;49.426;8.396;2022-07-11T08:55:25;5.45;;;1.70;;
52686;SDS011;38584;49.426;8.396;2022-07-11T08:57:51;7.82;;;1.73;;
52686;SDS011;38584;49.426;8.396;2022-07-11T09:00:16;7.45;;;1.85;;
52686;SDS011;38584;49.426;8.396;2022-07-11T09:02:42;6.22;;;2.00;;
52686;SDS011;38584;49.426;8.396;2022-07-11T09:05:08;7.50;;;1.90;;
52686;SDS011;38584;49.426;8.396;2022-07-11T09:07:34;6.90;;;2.03;;
52686;SDS011;38584;49.426;8.396;2022-07-11T09:10:07;11.43;;;2.77;;
52686;SDS011;38584;49.426;8.396;2022-07-11T09:12:33;8.35;;;2.25;;
52686;SDS011;38584;49.426;8.396;2022-07-11T09:14:59;9.48;;;2.20;;
52686;SDS011;38584;49.426;8.396;2022-07-11T09:17:25;7.35;;;1.83;;
52686;SDS011;38584;49.426;8.396;2022-07-11T09:19:52;5.07;;;1.90;;
52686;SDS011;38584;49.426;8.396;2022-07-11T09:22:17;6.15;;;1.83;;
52686;SDS011;38584;49.426;8.396;2022-07-11T09:25:06;7.15;;;2.05;;
52686;SDS011;38584;49.426;8.396;2022-07-11T09:27:47;4.95;;;2.00;;
52686;SDS011;38584;49.426;8.396;2022-07-11T09:30:26;8.07;;;1.95;;
52686;SDS011;38584;49.426;8.396;2022-07-11T09:33:01;14.48;;;2.03;;
52686;SDS011;38584;49.426;8.396;2022-07-11T09:35:28;3.70;;;1.92;;
52686;SDS011;38584;49.426;8.396;2022-07-11T09:37:58;6.85;;;1.65;;
52686;SDS011;38584;49.426;8.396;2022-07-11T09:40:28;3.67;;;1.40;;
52686;SDS011;38584;49.426;8.396;2022-07-11T09:42:54;6.22;;;1.83;;
52686;SDS011;38584;49.426;8.396;2022-07-11T09:45:21;3.30;;;1.42;;
52686;SDS011;38584;49.426;8.396;2022-07-11T09:47:48;3.97;;;1.30;;
52686;SDS011;38584;49.426;8.396;2022-07-11T09:50:18;4.65;;;1.33;;
52686;SDS011;38584;49.426;8.396;2022-07-11T09:52:57;9.30;;;3.85;;
52686;SDS011;38584;49.426;8.396;2022-07-11T09:55:41;4.05;;;1.55;;
52686;SDS011;38584;49.426;8.396;2022-07-11T09:58:11;4.70;;;1.50;;
52686;SDS011;38584;49.426;8.396;2022-07-11T10:00:39;7.88;;;1.55;;
52686;SDS011;38584;49.426;8.396;2022-07-11T10:03:06;3.55;;;1.10;;
52686;SDS011;38584;49.426;8.396;2022-07-11T10:05:32;4.80;;;1.38;;
52686;SDS011;38584;49.426;8.396;2022-07-11T10:07:58;3.83;;;1.35;;
52686;SDS011;38584;49.426;8.396;2022-07-11T10:10:25;3.83;;;1.40;;
52686;SDS011;38584;49.426;8.396;2022-07-11T10:12:52;4.13;;;1.35;;
52686;SDS011;38584;49.426;8.396;2022-07-11T10:15:22;3.92;;;1.50;;
52686;SDS011;38584;49.426;8.396;2022-07-11T10:18:00;3.08;;;1.40;;
52686;SDS011;38584;49.426;8.396;2022-07-11T10:26:01;6.57;;;1.83;;
52686;SDS011;38584;49.426;8.396;2022-07-11T10:28:49;7.57;;;1.95;;
52686;SDS011;38584;49.426;8.396;2022-07-11T10:34:01;5.45;;;1.67;;
52686;SDS011;38584;49.426;8.396;2022-07-11T10:36:27;7.63;;;1.80;;
52686;SDS011;38584;49.426;8.396;2022-07-11T10:41:49;5.10;;;1.70;;
52686;SDS011;38584;49.426;8.396;2022-07-11T10:44:15;6.60;;;2.30;;
52686;SDS011;38584;49.426;8.396;2022-07-11T10:46:41;9.70;;;2.40;;
52686;SDS011;38584;49.426;8.396;2022-07-11T10:54:13;6.47;;;2.30;;
52686;SDS011;38584;49.426;8.396;2022-07-11T10:59:40;10.55;;;2.40;;
52686;SDS011;38584;49.426;8.396;2022-07-11T11:02:20;9.55;;;2.80;;
52686;SDS011;38584;49.426;8.396;2022-07-11T11:04:46;7.53;;;2.50;;
52686;SDS011;38584;49.426;8.396;2022-07-11T11:09:57;7.35;;;2.97;;
52686;SDS011;38584;49.426;8.396;2022-07-11T11:15:42;7.47;;;3.00;;
52686;SDS011;38584;49.426;8.396;2022-07-11T11:23:23;7.50;;;3.03;;
52686;SDS011;38584;49.426;8.396;2022-07-11T11:25:49;7.90;;;3.30;;
52686;SDS011;38584;49.426;8.396;2022-07-11T11:28:18;7.82;;;3.53;;
52686;SDS011;38584;49.426;8.396;2022-07-11T11:30:52;11.35;;;3.30;;
52686;SDS011;38584;49.426;8.396;2022-07-11T11:33:18;8.55;;;3.60;;
52686;SDS011;38584;49.426;8.396;2022-07-11T11:35:43;8.93;;;3.53;;
52686;SDS011;38584;49.426;8.396;2022-07-11T11:38:09;8.07;;;3.28;;
52686;SDS011;38584;49.426;8.396;2022-07-11T11:40:34;9.23;;;3.28;;
52686;SDS011;38584;49.426;8.396;2022-07-11T11:43:00;8.55;;;3.40;;
52686;SDS011;38584;49.426;8.396;2022-07-11T11:45:25;9.18;;;3.15;;
52686;SDS011;38584;49.426;8.396;2022-07-11T11:47:50;8.23;;;2.95;;
52686;SDS011;38584;49.426;8.396;2022-07-11T11:50:16;10.90;;;3.00;;
52686;SDS011;38584;49.426;8.396;2022-07-11T11:52:41;9.15;;;3.28;;
52686;SDS011;38584;49.426;8.396;2022-07-11T11:55:07;9.98;;;3.70;;
52686;SDS011;38584;49.426;8.396;2022-07-11T11:57:34;11.02;;;3.67;;
52686;SDS011;38584;49.426;8.396;2022-07-11T11:59:59;9.75;;;3.55;;
52686;SDS011;38584;49.426;8.396;2022-07-11T12:02:26;11.48;;;3.70;;
52686;SDS011;38584;49.426;8.396;2022-07-11T12:04:52;8.88;;;3.72;;
52686;SDS011;38584;49.426;8.396;2022-07-11T12:07:28;9.75;;;3.83;;
52686;SDS011;38584;49.426;8.396;2022-07-11T12:09:54;10.23;;;4.15;;
52686;SDS011;38584;49.426;8.396;2022-07-11T12:12:29;11.32;;;3.78;;
52686;SDS011;38584;49.426;8.396;2022-07-11T12:18:18;8.83;;;3.50;;
52686;SDS011;38584;49.426;8.396;2022-07-11T12:20:43;10.55;;;3.95;;
52686;SDS011;38584;49.426;8.396;2022-07-11T12:23:10;10.73;;;4.13;;
52686;SDS011;38584;49.426;8.396;2022-07-11T12:25:37;10.25;;;3.95;;
52686;SDS011;38584;49.426;8.396;2022-07-11T12:28:03;8.48;;;3.80;;
52686;SDS011;38584;49.426;8.396;2022-07-11T12:30:29;11.45;;;4.03;;
52686;SDS011;38584;49.426;8.396;2022-07-11T12:33:02;12.10;;;3.72;;
52686;SDS011;38584;49.426;8.396;2022-07-11T12:35:28;7.72;;;3.40;;
52686;SDS011;38584;49.426;8.396;2022-07-11T12:37:54;11.63;;;3.78;;
52686;SDS011;38584;49.426;8.396;2022-07-11T12:40:19;9.00;;;4.00;;
52686;SDS011;38584;49.426;8.396;2022-07-11T12:42:44;9.20;;;3.70;;
52686;SDS011;38584;49.426;8.396;2022-07-11T12:45:11;9.45;;;3.80;;
52686;SDS011;38584;49.426;8.396;2022-07-11T12:47:38;11.60;;;3.53;;
52686;SDS011;38584;49.426;8.396;2022-07-11T12:52:43;10.68;;;3.38;;
52686;SDS011;38584;49.426;8.396;2022-07-11T12:55:11;7.38;;;3.17;;
52686;SDS011;38584;49.426;8.396;2022-07-11T12:57:37;7.30;;;3.20;;
52686;SDS011;38584;49.426;8.396;2022-07-11T13:00:13;6.80;;;3.00;;
52686;SDS011;38584;49.426;8.396;2022-07-11T13:02:48;10.05;;;3.33;;
52686;SDS011;38584;49.426;8.396;2022-07-11T13:05:14;8.82;;;3.40;;
52686;SDS011;38584;49.426;8.396;2022-07-11T13:07:40;7.90;;;3.25;;
52686;SDS011;38584;49.426;8.396;2022-07-11T13:10:25;6.65;;;2.85;;
52686;SDS011;38584;49.426;8.396;2022-07-11T13:12:53;11.57;;;3.15;;
52686;SDS011;38584;49.426;8.396;2022-07-11T13:15:20;6.63;;;2.70;;
52686;SDS011;38584;49.426;8.396;2022-07-11T13:17:47;6.88;;;2.60;;
52686;SDS011;38584;49.426;8.396;2022-07-11T13:20:21;5.72;;;2.60;;
52686;SDS011;38584;49.426;8.396;2022-07-11T13:22:48;6.57;;;2.40;;
52686;SDS011;38584;49.426;8.396;2022-07-11T13:25:15;8.82;;;2.72;;
52686;SDS011;38584;49.426;8.396;2022-07-11T13:27:41;7.28;;;2.20;;
52686;SDS011;38584;49.426;8.396;2022-07-11T13:30:08;6.95;;;2.10;;
52686;SDS011;38584;49.426;8.396;2022-07-11T13:32:41;6.20;;;2.30;;
52686;SDS011;38584;49.426;8.396;2022-07-11T13:35:10;5.78;;;2.38;;
52686;SDS011;38584;49.426;8.396;2022-07-11T13:37:36;6.35;;;2.20;;
52686;SDS011;38584;49.426;8.396;2022-07-11T13:40:04;6.45;;;2.40;;
52686;SDS011;38584;49.426;8.396;2022-07-11T13:42:30;6.25;;;2.40;;
52686;SDS011;38584;49.426;8.396;2022-07-11T13:44:57;7.07;;;2.72;;
52686;SDS011;38584;49.426;8.396;2022-07-11T13:47:26;8.75;;;2.53;;
52686;SDS011;38584;49.426;8.396;2022-07-11T13:49:52;7.15;;;2.65;;
52686;SDS011;38584;49.426;8.396;2022-07-11T13:52:17;5.10;;;2.40;;
52686;SDS011;38584;49.426;8.396;2022-07-11T13:54:42;4.53;;;2.20;;
52686;SDS011;38584;49.426;8.396;2022-07-11T13:57:08;7.10;;;2.33;;
52686;SDS011;38584;49.426;8.396;2022-07-11T13:59:33;8.63;;;2.47;;
52686;SDS011;38584;49.426;8.396;2022-07-11T14:01:59;9.25;;;2.60;;
52686;SDS011;38584;49.426;8.396;2022-07-11T14:04:24;8.20;;;2.60;;
52686;SDS011;38584;49.426;8.396;2022-07-11T14:06:50;8.05;;;2.70;;
52686;SDS011;38584;49.426;8.396;2022-07-11T14:09:15;6.57;;;2.38;;
52686;SDS011;38584;49.426;8.396;2022-07-11T14:11:40;8.55;;;2.65;;
52686;SDS011;38584;49.426;8.396;2022-07-11T14:14:06;6.95;;;2.60;;
52686;SDS011;38584;49.426;8.396;2022-07-11T14:16:31;6.32;;;2.30;;
52686;SDS011;38584;49.426;8.396;2022-07-11T14:18:57;7.78;;;2.70;;
52686;SDS011;38584;49.426;8.396;2022-07-11T14:21:25;6.10;;;2.58;;
52686;SDS011;38584;49.426;8.396;2022-07-11T14:23:51;6.53;;;2.50;;
52686;SDS011;38584;49.426;8.396;2022-07-11T14:26:16;6.50;;;2.30;;
52686;SDS011;38584;49.426;8.396;2022-07-11T14:28:42;5.97;;;2.40;;
52686;SDS011;38584;49.426;8.396;2022-07-11T14:31:07;9.18;;;2.75;;
52686;SDS011;38584;49.426;8.396;2022-07-11T14:33:33;7.00;;;2.60;;
52686;SDS011;38584;49.426;8.396;2022-07-11T14:35:58;9.30;;;2.70;;
52686;SDS011;38584;49.426;8.396;2022-07-11T14:38:24;6.57;;;2.40;;
52686;SDS011;38584;49.426;8.396;2022-07-11T14:40:49;5.70;;;2.47;;
52686;SDS011;38584;49.426;8.396;2022-07-11T14:43:14;5.53;;;2.50;;
52686;SDS011;38584;49.426;8.396;2022-07-11T14:45:40;9.75;;;2.97;;
52686;SDS011;38584;49.426;8.396;2022-07-11T14:48:05;7.63;;;2.90;;
52686;SDS011;38584;49.426;8.396;2022-07-11T14:50:30;6.78;;;2.70;;
52686;SDS011;38584;49.426;8.396;2022-07-11T14:52:58;11.90;;;3.20;;
52686;SDS011;38584;49.426;8.396;2022-07-11T14:55:24;9.18;;;2.88;;
52686;SDS011;38584;49.426;8.396;2022-07-11T14:57:49;8.52;;;2.88;;
52686;SDS011;38584;49.426;8.396;2022-07-11T15:00:15;7.47;;;2.72;;
52686;SDS011;38584;49.426;8.396;2022-07-11T15:02:44;6.90;;;2.55;;
52686;SDS011;38584;49.426;8.396;2022-07-11T15:07:53;7.30;;;2.70;;
52686;SDS011;38584;49.426;8.396;2022-07-11T15:10:36;6.25;;;2.53;;
52686;SDS011;38584;49.426;8.396;2022-07-11T15:13:20;5.25;;;2.50;;
52686;SDS011;38584;49.426;8.396;2022-07-11T15:15:46;5.80;;;2.45;;
52686;SDS011;38584;49.426;8.396;2022-07-11T15:18:11;8.88;;;2.53;;